createdAt,value
2019-01-16T00:00:24.938Z,18.27
2019-01-16T00:03:31.882Z,16.00
2019-01-16T00:06:25.473Z,14.93
2019-01-16T00:09:32.400Z,16.23
2019-01-16T00:12:29.915Z,15.83
2019-01-16T00:15:26.988Z,14.93
2019-01-16T00:18:18.101Z,14.23
2019-01-16T00:21:18.474Z,16.10
2019-01-16T00:24:19.212Z,14.87
2019-01-16T00:27:26.059Z,13.90
2019-01-16T00:30:14.773Z,15.20
2019-01-16T00:33:20.363Z,15.17
2019-01-16T00:36:27.282Z,13.73
2019-01-16T00:39:27.370Z,13.17
2019-01-16T00:42:24.950Z,15.40
2019-01-16T00:45:12.088Z,15.37
2019-01-16T00:48:00.975Z,13.90
2019-01-16T00:51:01.840Z,15.37
2019-01-16T00:54:02.132Z,13.13
2019-01-16T00:57:05.025Z,15.90
2019-01-16T00:59:45.948Z,14.53
2019-01-16T01:02:40.247Z,14.97
2019-01-16T01:05:35.362Z,14.27
2019-01-16T01:08:23.014Z,14.53
2019-01-16T01:11:06.977Z,13.27
2019-01-16T01:14:18.269Z,15.97
2019-01-16T01:17:16.181Z,14.97
2019-01-16T01:20:03.713Z,15.80
2019-01-16T01:23:11.267Z,14.70
2019-01-16T01:25:58.625Z,13.97
2019-01-16T01:28:45.558Z,15.20
2019-01-16T01:31:39.438Z,15.50
2019-01-16T01:34:28.081Z,13.87
2019-01-16T01:37:31.794Z,16.80
2019-01-16T01:40:18.280Z,13.47
2019-01-16T01:43:05.268Z,15.90
2019-01-16T01:46:08.976Z,16.07
2019-01-16T01:48:57.430Z,14.40
2019-01-16T01:51:58.039Z,14.90
2019-01-16T01:54:45.331Z,14.07
2019-01-16T01:57:38.073Z,16.40
2019-01-16T02:00:39.283Z,14.53
2019-01-16T02:03:47.331Z,15.67
2019-01-16T02:06:44.696Z,15.50
2019-01-16T02:09:42.108Z,14.93
2019-01-16T02:12:39.389Z,16.50
2019-01-16T02:15:24.136Z,15.20
2019-01-16T02:18:21.560Z,16.83
2019-01-16T02:21:08.939Z,16.97
2019-01-16T02:23:55.946Z,18.23
2019-01-16T02:26:43.448Z,17.97
2019-01-16T02:29:29.444Z,17.83
2019-01-16T02:32:18.710Z,18.33
2019-01-16T02:35:10.305Z,19.30
2019-01-16T02:38:04.941Z,18.13
2019-01-16T02:40:50.218Z,18.93
2019-01-16T02:43:31.774Z,20.63
2019-01-16T02:46:25.121Z,19.20
2019-01-16T02:49:07.439Z,23.23
2019-01-16T02:52:14.345Z,20.60
2019-01-16T02:55:01.820Z,20.50
2019-01-16T02:57:49.475Z,20.67
2019-01-16T03:00:53.342Z,20.73
2019-01-16T03:03:32.928Z,23.43
2019-01-16T03:06:23.924Z,21.90
2019-01-16T03:09:09.679Z,21.37
2019-01-16T03:11:59.781Z,22.00
2019-01-16T03:14:44.504Z,20.43
2019-01-16T03:17:39.325Z,18.87
2019-01-16T03:20:32.697Z,20.43
2019-01-16T03:23:21.144Z,21.87
2019-01-16T03:26:09.577Z,20.83
2019-01-16T03:28:52.211Z,21.17
2019-01-16T03:31:40.650Z,21.97
2019-01-16T03:34:38.462Z,21.97
2019-01-16T03:37:25.821Z,23.83
2019-01-16T03:40:12.988Z,24.90
2019-01-16T03:43:08.298Z,22.63
2019-01-16T03:45:59.856Z,23.97
2019-01-16T03:48:44.106Z,22.33
2019-01-16T03:51:31.446Z,22.73
2019-01-16T03:54:33.623Z,22.53
2019-01-16T03:57:34.155Z,24.33
2019-01-16T04:00:37.840Z,21.87
2019-01-16T04:03:25.394Z,27.60
2019-01-16T04:06:15.211Z,21.80
2019-01-16T04:08:59.690Z,26.03
2019-01-16T04:12:00.384Z,23.90
2019-01-16T04:14:51.897Z,22.90
2019-01-16T04:17:48.319Z,22.50
2019-01-16T04:20:35.373Z,23.70
2019-01-16T04:23:24.095Z,22.13
2019-01-16T04:26:18.575Z,22.27
2019-01-16T04:29:06.064Z,22.63
2019-01-16T04:31:46.025Z,21.97
2019-01-16T04:34:49.626Z,19.43
2019-01-16T04:37:36.359Z,20.70
2019-01-16T04:40:37.888Z,21.10
2019-01-16T04:43:38.366Z,21.03
2019-01-16T04:46:25.316Z,20.67
2019-01-16T04:49:16.592Z,19.90
2019-01-16T04:52:08.052Z,18.03
2019-01-16T04:54:59.505Z,18.13
2019-01-16T04:57:50.945Z,17.10
2019-01-16T05:00:38.177Z,17.80
2019-01-16T05:03:26.648Z,16.53
2019-01-16T05:06:08.267Z,15.63
2019-01-16T05:09:02.693Z,20.87
2019-01-16T05:11:53.730Z,16.57
2019-01-16T05:14:46.309Z,15.17
2019-01-16T05:17:34.695Z,16.53
2019-01-16T05:20:22.455Z,16.93
2019-01-16T05:23:10.307Z,17.60
2019-01-16T05:26:04.833Z,16.00
2019-01-16T05:28:45.444Z,16.17
2019-01-16T05:34:38.178Z,16.53
2019-01-16T05:37:28.146Z,16.47
2019-01-16T05:40:15.603Z,15.17
2019-01-16T05:43:04.089Z,18.37
2019-01-16T05:45:52.505Z,16.20
2019-01-16T05:48:40.751Z,14.90
2019-01-16T05:51:38.477Z,14.83
2019-01-16T05:54:36.056Z,13.43
2019-01-16T05:57:13.811Z,16.43
2019-01-16T06:00:01.103Z,16.73
2019-01-16T06:03:07.815Z,16.83
2019-01-16T06:06:14.684Z,18.30
2019-01-16T06:09:20.730Z,16.63
2019-01-16T06:12:27.152Z,11.77
2019-01-16T06:15:15.940Z,16.57
2019-01-16T06:18:03.264Z,13.60
2019-01-16T06:21:06.806Z,15.47
2019-01-16T06:23:57.871Z,13.13
2019-01-16T06:26:44.909Z,13.63
2019-01-16T06:29:33.669Z,12.37
2019-01-16T06:32:21.968Z,12.47
2019-01-16T06:35:10.505Z,12.93
2019-01-16T06:37:57.776Z,11.93
2019-01-16T06:40:53.839Z,10.07
2019-01-16T06:43:54.723Z,12.73
2019-01-16T06:46:42.190Z,11.50
2019-01-16T06:49:36.807Z,11.40
2019-01-16T06:52:21.639Z,13.53
2019-01-16T06:55:09.284Z,10.83
2019-01-16T06:57:49.477Z,11.33
2019-01-16T07:00:51.580Z,10.17
2019-01-16T07:03:43.092Z,12.70
2019-01-16T07:06:25.772Z,11.03
2019-01-16T07:09:13.059Z,10.57
2019-01-16T07:11:55.288Z,12.17
2019-01-16T07:14:43.907Z,15.47
2019-01-16T07:17:38.407Z,10.57
2019-01-16T07:20:27.002Z,10.67
2019-01-16T07:23:18.613Z,9.23
2019-01-16T07:26:19.875Z,11.50
2019-01-16T07:29:11.415Z,11.20
2019-01-16T07:31:59.871Z,10.93
2019-01-16T07:35:07.098Z,11.43
2019-01-16T07:37:54.676Z,10.87
2019-01-16T07:41:03.371Z,9.43
2019-01-16T07:47:04.040Z,7.53
2019-01-16T07:50:01.722Z,9.40
2019-01-16T07:52:48.877Z,8.80
2019-01-16T07:55:39.891Z,9.00
2019-01-16T07:58:34.637Z,8.10
2019-01-16T08:01:38.232Z,9.07
2019-01-16T08:04:26.760Z,7.70
2019-01-16T08:07:07.728Z,10.30
2019-01-16T08:09:56.141Z,9.00
2019-01-16T08:12:47.540Z,8.80
2019-01-16T08:15:42.310Z,7.80
2019-01-16T08:18:26.909Z,9.20
2019-01-16T08:21:19.595Z,7.27
2019-01-16T08:24:26.448Z,7.00
2019-01-16T08:27:08.802Z,8.07
2019-01-16T08:29:59.162Z,8.07
2019-01-16T08:32:47.686Z,8.13
2019-01-16T08:35:39.372Z,7.20
2019-01-16T08:38:26.567Z,8.20
2019-01-16T08:41:14.434Z,5.40
2019-01-16T08:43:53.255Z,7.67
2019-01-16T08:46:45.417Z,8.53
2019-01-16T08:49:36.882Z,5.80
2019-01-16T08:52:24.497Z,7.23
2019-01-16T08:55:12.331Z,5.40
2019-01-16T08:58:03.767Z,5.50
2019-01-16T09:00:50.755Z,6.97
2019-01-16T09:03:38.975Z,8.20
2019-01-16T09:06:28.066Z,7.00
2019-01-16T09:09:16.620Z,6.50
2019-01-16T09:12:05.283Z,5.27
2019-01-16T09:15:03.906Z,6.90
2019-01-16T09:17:55.412Z,7.93
2019-01-16T09:20:52.320Z,6.67
2019-01-16T09:23:46.922Z,7.67
2019-01-16T09:26:42.854Z,7.97
2019-01-16T09:29:34.053Z,9.63
2019-01-16T09:32:21.315Z,5.73
2019-01-16T09:35:11.561Z,8.27
2019-01-16T09:38:13.469Z,7.07
2019-01-16T09:41:11.105Z,6.00
2019-01-16T09:44:05.811Z,7.60
2019-01-16T09:46:48.991Z,8.70
2019-01-16T09:49:43.345Z,9.27
2019-01-16T09:52:28.994Z,9.20
2019-01-16T09:55:08.637Z,9.20
2019-01-16T09:57:53.436Z,8.03
2019-01-16T10:00:52.394Z,8.13
2019-01-16T10:03:43.949Z,11.63
2019-01-16T10:06:44.861Z,8.53
2019-01-16T10:09:39.326Z,7.97
2019-01-16T10:12:38.422Z,11.67
2019-01-16T10:15:41.551Z,11.43
2019-01-16T10:18:19.011Z,9.40
2019-01-16T10:21:08.167Z,10.93
2019-01-16T10:24:00.750Z,11.40
2019-01-16T10:26:51.969Z,11.03
2019-01-16T10:29:32.056Z,9.27
2019-01-16T10:32:11.264Z,12.10
2019-01-16T10:35:01.184Z,11.20
2019-01-16T10:37:49.908Z,10.23
2019-01-16T10:40:49.627Z,10.07
2019-01-16T10:43:51.766Z,14.63
2019-01-16T10:47:01.006Z,13.53
2019-01-16T10:49:51.816Z,10.93
2019-01-16T10:52:50.199Z,11.43
2019-01-16T10:55:42.144Z,12.87
2019-01-16T10:58:39.024Z,12.60
2019-01-16T11:01:27.858Z,14.93
2019-01-16T11:04:18.489Z,15.53
2019-01-16T11:07:19.329Z,17.73
2019-01-16T11:10:16.961Z,18.87
2019-01-16T11:13:04.375Z,15.57
2019-01-16T11:16:24.925Z,16.57
2019-01-16T11:19:26.960Z,15.53
2019-01-16T11:22:30.276Z,19.40
2019-01-16T11:25:17.562Z,18.07
2019-01-16T11:28:08.904Z,19.60
2019-01-16T11:30:56.118Z,16.57
2019-01-16T11:33:45.281Z,18.60
2019-01-16T11:36:35.383Z,15.53
2019-01-16T11:39:40.085Z,19.70
2019-01-16T11:42:47.748Z,16.53
2019-01-16T11:45:26.652Z,18.27
2019-01-16T11:48:35.895Z,19.87
2019-01-16T11:51:35.317Z,15.00
2019-01-16T11:54:32.579Z,19.00
2019-01-16T11:57:39.605Z,18.03
2019-01-16T12:00:19.651Z,17.87
2019-01-16T12:03:10.865Z,15.80
2019-01-16T12:05:51.592Z,17.33
2019-01-16T12:08:54.581Z,16.70
2019-01-16T12:11:41.917Z,12.73
2019-01-16T12:14:36.182Z,15.70
2019-01-16T12:17:25.968Z,16.30
2019-01-16T12:20:24.175Z,14.47
2019-01-16T12:23:04.194Z,15.17
2019-01-16T12:25:51.393Z,14.40
2019-01-16T12:28:52.255Z,13.37
2019-01-16T12:31:47.167Z,17.23
2019-01-16T12:34:43.278Z,14.03
2019-01-16T12:37:52.102Z,13.00
2019-01-16T12:40:37.483Z,17.33
2019-01-16T12:43:20.098Z,14.27
2019-01-16T12:46:02.605Z,12.23
2019-01-16T12:48:52.783Z,17.13
2019-01-16T12:51:40.356Z,14.17
2019-01-16T12:54:28.704Z,14.20
2019-01-16T12:57:17.183Z,15.73
2019-01-16T13:00:10.417Z,17.70
2019-01-16T13:03:03.030Z,15.87
2019-01-16T13:05:57.239Z,15.47
2019-01-16T13:08:51.910Z,14.90
2019-01-16T13:11:40.498Z,13.57
2019-01-16T13:14:31.836Z,12.77
2019-01-16T13:17:30.642Z,14.87
2019-01-16T13:20:22.819Z,14.73
2019-01-16T13:23:20.562Z,14.93
2019-01-16T13:26:30.571Z,12.27
2019-01-16T13:29:17.945Z,16.30
2019-01-16T13:32:05.275Z,11.67
2019-01-16T13:34:48.821Z,11.67
2019-01-16T13:37:43.254Z,12.00
2019-01-16T13:40:34.466Z,12.37
2019-01-16T13:43:29.322Z,12.97
2019-01-16T13:46:20.944Z,13.67
2019-01-16T13:49:20.883Z,13.73
2019-01-16T13:52:19.110Z,12.40
2019-01-16T13:55:08.758Z,10.83
2019-01-16T13:57:55.740Z,14.77
2019-01-16T14:00:52.185Z,14.13
2019-01-16T14:03:39.579Z,15.77
2019-01-16T14:06:26.933Z,14.20
2019-01-16T14:09:15.598Z,12.83
2019-01-16T14:12:16.149Z,14.87
2019-01-16T14:15:09.243Z,18.33
2019-01-16T14:17:56.775Z,12.77
2019-01-16T14:20:43.177Z,19.33
2019-01-16T14:23:37.234Z,15.70
2019-01-16T14:26:29.087Z,11.57
2019-01-16T14:29:16.548Z,14.30
2019-01-16T14:32:05.100Z,17.90
2019-01-16T14:35:00.348Z,13.83
2019-01-16T14:37:47.831Z,13.83
2019-01-16T14:40:35.164Z,12.13
2019-01-16T14:43:24.800Z,16.97
2019-01-16T14:46:19.268Z,13.37
2019-01-16T14:48:58.667Z,16.03
2019-01-16T14:51:46.525Z,14.40
2019-01-16T14:54:50.425Z,12.47
2019-01-16T14:57:39.445Z,14.50
2019-01-16T15:00:39.329Z,16.80
2019-01-16T15:03:26.509Z,14.17
2019-01-16T15:06:26.105Z,12.67
2019-01-16T15:09:20.725Z,16.27
2019-01-16T15:12:06.435Z,15.73
2019-01-16T15:14:54.916Z,15.83
2019-01-16T15:17:52.501Z,11.87
2019-01-16T15:20:51.390Z,16.57
2019-01-16T15:23:29.654Z,11.37
2019-01-16T15:26:06.096Z,15.13
2019-01-16T15:29:00.634Z,19.37
2019-01-16T15:31:49.204Z,14.57
2019-01-16T15:34:40.529Z,16.93
2019-01-16T15:37:36.594Z,12.43
2019-01-16T15:40:45.759Z,14.93
2019-01-16T15:43:40.592Z,12.80
2019-01-16T15:46:29.057Z,14.33
2019-01-16T15:49:16.642Z,12.77
2019-01-16T15:52:24.900Z,13.97
2019-01-16T15:55:24.908Z,14.60
2019-01-16T15:58:09.037Z,16.33
2019-01-16T16:00:57.923Z,13.60
2019-01-16T16:03:55.752Z,10.43
2019-01-16T16:07:06.928Z,15.13
2019-01-16T16:10:11.100Z,17.33
2019-01-16T16:13:06.782Z,18.43
2019-01-16T16:16:03.421Z,15.00
2019-01-16T16:18:58.176Z,19.23
2019-01-16T16:21:59.026Z,19.70
2019-01-16T16:24:40.239Z,14.67
2019-01-16T16:27:34.959Z,13.93
2019-01-16T16:30:24.951Z,14.10
2019-01-16T16:33:13.007Z,12.57
2019-01-16T16:36:03.251Z,16.47
2019-01-16T16:38:57.267Z,11.03
2019-01-16T16:41:48.985Z,14.07
2019-01-16T16:44:52.853Z,13.70
2019-01-16T16:47:41.278Z,14.27
2019-01-16T16:50:29.096Z,17.40
2019-01-16T16:53:05.830Z,15.53
2019-01-16T16:55:51.774Z,17.37
2019-01-16T16:58:38.864Z,14.83
2019-01-16T17:01:26.480Z,14.07
2019-01-16T17:04:13.644Z,15.80
2019-01-16T17:07:22.031Z,17.60
2019-01-16T17:10:06.445Z,17.20
2019-01-16T17:12:54.023Z,16.50
2019-01-16T17:15:47.681Z,15.73
2019-01-16T17:18:27.749Z,16.80
2019-01-16T17:21:16.307Z,16.00
2019-01-16T17:23:56.861Z,16.20
2019-01-16T17:26:58.474Z,16.07
2019-01-16T17:29:45.673Z,17.13
2019-01-16T17:32:34.232Z,17.37
2019-01-16T17:35:24.262Z,16.90
2019-01-16T17:38:32.288Z,17.80
2019-01-16T17:41:29.983Z,16.53
2019-01-16T17:44:17.260Z,15.33
2019-01-16T17:47:05.861Z,16.73
2019-01-16T17:49:54.184Z,17.77
2019-01-16T17:52:38.922Z,16.23
2019-01-16T17:55:36.760Z,16.50
2019-01-16T17:58:23.884Z,18.60
2019-01-16T18:01:03.339Z,19.53
2019-01-16T18:03:55.850Z,15.67
2019-01-16T18:06:54.361Z,15.90
2019-01-16T18:10:01.254Z,15.90
2019-01-16T18:12:51.615Z,17.83
2019-01-16T18:15:53.813Z,16.70
2019-01-16T18:18:49.080Z,16.07
2019-01-16T18:21:48.026Z,20.13
2019-01-16T18:24:28.943Z,18.70
2019-01-16T18:27:34.389Z,18.13
2019-01-16T18:30:37.910Z,17.47
2019-01-16T18:33:40.560Z,20.33
2019-01-16T18:36:28.084Z,20.63
2019-01-16T18:39:21.340Z,17.57
2019-01-16T18:42:20.098Z,19.07
2019-01-16T18:45:10.045Z,17.83
2019-01-16T18:48:13.404Z,17.53
2019-01-16T18:51:04.541Z,19.97
2019-01-16T18:53:49.996Z,16.33
2019-01-16T18:56:43.941Z,21.23
2019-01-16T18:59:28.664Z,15.53
2019-01-16T19:02:27.121Z,17.23
2019-01-16T19:05:14.228Z,15.97
2019-01-16T19:08:01.396Z,20.37
2019-01-16T19:10:52.864Z,19.87
2019-01-16T19:13:35.686Z,18.93
2019-01-16T19:16:27.204Z,18.90
2019-01-16T19:19:28.384Z,19.93
2019-01-16T19:22:16.101Z,17.53
2019-01-16T19:24:56.375Z,18.20
2019-01-16T19:27:39.444Z,19.03
2019-01-16T19:30:34.459Z,17.77
2019-01-16T19:33:23.035Z,19.60
2019-01-16T19:36:14.217Z,17.87
2019-01-16T19:39:02.909Z,20.03
2019-01-16T19:41:52.634Z,18.73
2019-01-16T19:44:40.644Z,18.20
2019-01-16T19:47:33.427Z,18.37
2019-01-16T19:50:34.310Z,17.17
2019-01-16T19:57:11.370Z,18.07
2019-01-16T20:00:34.215Z,18.50
2019-01-16T20:03:30.302Z,19.77
2019-01-16T20:06:15.615Z,19.70
2019-01-16T20:09:24.889Z,19.37
2019-01-16T20:12:10.577Z,22.40
2019-01-16T20:14:59.548Z,19.40
2019-01-16T20:17:57.402Z,23.07
2019-01-16T20:21:04.540Z,20.63
2019-01-16T20:23:59.007Z,20.83
2019-01-16T20:26:47.788Z,22.07
2019-01-16T20:29:35.331Z,23.13
2019-01-16T20:32:29.871Z,23.90
2019-01-16T20:35:38.010Z,21.97
2019-01-16T20:38:35.159Z,21.67
2019-01-16T20:41:15.720Z,23.33
2019-01-16T20:44:16.703Z,26.67
2019-01-16T20:47:14.534Z,27.00
2019-01-16T20:50:02.373Z,23.73
2019-01-16T20:52:55.052Z,28.07
2019-01-16T20:55:51.047Z,26.43
2019-01-16T20:58:54.871Z,22.40
2019-01-16T21:01:44.618Z,27.67
2019-01-16T21:04:33.228Z,27.93
2019-01-16T21:07:24.609Z,23.20
2019-01-16T21:10:20.769Z,27.13
2019-01-16T21:13:07.858Z,26.67
2019-01-16T21:15:55.423Z,27.60
2019-01-16T21:18:53.695Z,27.10
2019-01-16T21:21:42.797Z,29.33
2019-01-16T21:24:31.126Z,30.70
2019-01-16T21:27:24.484Z,26.47
2019-01-16T21:30:11.668Z,25.57
2019-01-16T21:33:13.565Z,28.97
2019-01-16T21:36:10.940Z,26.30
2019-01-16T21:38:53.874Z,31.03
2019-01-16T21:41:35.737Z,28.90
2019-01-16T21:44:26.667Z,27.03
2019-01-16T21:47:14.016Z,24.27
2019-01-16T21:49:55.230Z,29.00
2019-01-16T21:52:55.265Z,27.63
2019-01-16T21:55:52.178Z,25.53
2019-01-16T21:58:43.458Z,29.27
2019-01-16T22:01:43.369Z,24.57
2019-01-16T22:04:30.571Z,25.77
2019-01-16T22:07:25.076Z,23.13
2019-01-16T22:10:07.898Z,28.27
2019-01-16T22:13:05.348Z,24.33
2019-01-16T22:15:56.431Z,23.70
2019-01-16T22:18:59.965Z,26.63
2019-01-16T22:21:47.289Z,20.47
2019-01-16T22:24:41.594Z,26.97
2019-01-16T22:27:24.160Z,25.80
2019-01-16T22:30:21.752Z,26.03
2019-01-16T22:33:13.503Z,26.67
2019-01-16T22:36:01.417Z,26.57
2019-01-16T22:41:53.515Z,26.93
2019-01-16T22:44:42.039Z,28.90
2019-01-16T22:47:32.630Z,32.63
2019-01-16T22:50:23.817Z,26.97
2019-01-16T22:53:30.353Z,26.63
2019-01-16T22:56:15.372Z,28.43
2019-01-16T22:59:06.282Z,26.17
2019-01-16T23:01:58.086Z,25.97
2019-01-16T23:04:58.574Z,28.10
2019-01-16T23:07:46.945Z,24.37
2019-01-16T23:10:38.696Z,26.40
2019-01-16T23:13:47.666Z,26.83
2019-01-16T23:16:53.071Z,21.77
2019-01-16T23:19:40.803Z,20.77
2019-01-16T23:22:42.688Z,17.27
2019-01-16T23:25:30.970Z,23.70
2019-01-16T23:28:22.538Z,20.07
2019-01-16T23:31:16.557Z,21.63
2019-01-16T23:34:10.537Z,21.57
2019-01-16T23:37:02.713Z,21.97
2019-01-16T23:39:54.316Z,20.83
2019-01-16T23:42:46.910Z,21.00
2019-01-16T23:45:38.744Z,20.10
2019-01-16T23:48:25.778Z,21.47
2019-01-16T23:51:10.859Z,22.70
2019-01-16T23:54:17.532Z,24.93
2019-01-16T23:57:12.197Z,21.17
